Time;durP1;ratioP1;P1;durP2;ratioP2;P2;SDS_P1;SDS_P2;PMS_P1;PMS_P2;Temp;Humidity;BMP_temperature;BMP_pressure;BME280_temperature;BME280_humidity;BME280_pressure;Samples;Min_cycle;Max_cycle;Signal;HPM_P1;HPM_P2
2023/07/18 00:00:32;;;;;;;;;1.25;1.25;;;;;23.77;33.66;101664.25;5082120;28;45874;-67
2023/07/18 00:02:57;;;;;;;;;3.00;3.00;;;;;23.71;33.35;101649.38;5082703;28;45488;-67
2023/07/18 00:05:22;;;;;;;;;1.25;1.25;;;;;23.70;33.48;101659.22;5082332;28;45676;-67
2023/07/18 00:07:48;;;;;;;;;1.00;1.00;;;;;23.66;33.50;101660.34;5082466;28;45378;-67
2023/07/18 00:10:14;;;;;;;;;2.25;1.00;;;;;23.61;33.59;101659.75;5066129;28;47047;-67
2023/07/18 00:12:40;;;;;;;;;2.75;2.25;;;;;23.59;33.63;101664.31;5070661;28;45350;-67
2023/07/18 00:15:07;;;;;;;;;2.50;2.50;;;;;23.57;33.61;101655.50;5082071;28;45310;-67
2023/07/18 00:17:33;;;;;;;;;2.00;2.00;;;;;23.48;34.03;101642.59;5082299;28;45310;-67
2023/07/18 00:20:00;;;;;;;;;4.00;3.00;;;;;23.48;33.68;101647.94;5081942;27;46200;-67
2023/07/18 00:22:25;;;;;;;;;1.25;1.25;;;;;23.47;33.92;101655.16;5082054;28;45178;-67
2023/07/18 00:24:50;;;;;;;;;1.50;1.50;;;;;23.42;34.03;101649.16;5080666;28;45478;-67
2023/07/18 00:27:16;;;;;;;;;2.50;2.50;;;;;23.41;33.84;101647.44;5081147;28;45493;-67
2023/07/18 00:29:42;;;;;;;;;2.75;2.75;;;;;23.37;34.34;101652.09;5080590;27;47208;-67
2023/07/18 00:32:07;;;;;;;;;4.50;3.25;;;;;23.36;34.47;101649.50;5082060;28;45375;-67
2023/07/18 00:34:33;;;;;;;;;2.50;2.50;;;;;23.32;34.09;101648.78;5082124;28;45456;-67
2023/07/18 00:36:58;;;;;;;;;3.00;3.00;;;;;23.30;34.17;101644.47;5082202;28;45468;-67
2023/07/18 00:39:23;;;;;;;;;3.50;2.75;;;;;23.25;34.23;101644.69;5081773;28;46147;-67
2023/07/18 00:41:49;;;;;;;;;2.75;2.00;;;;;23.23;34.04;101648.41;5081489;28;45322;-67
2023/07/18 00:44:14;;;;;;;;;2.00;2.00;;;;;23.19;34.46;101642.34;5081965;28;45414;-67
2023/07/18 00:46:40;;;;;;;;;3.25;2.00;;;;;23.17;34.34;101644.25;5071721;28;45379;-67
2023/07/18 00:49:05;;;;;;;;;4.00;3.00;;;;;23.14;34.19;101644.38;5061351;28;46086;-67
2023/07/18 00:51:31;;;;;;;;;2.00;2.00;;;;;23.11;34.43;101639.19;5060229;28;45239;-67
2023/07/18 00:53:56;;;;;;;;;3.00;2.00;;;;;23.09;34.39;101641.91;5061485;28;45245;-67
2023/07/18 00:56:23;;;;;;;;;2.00;2.00;;;;;23.07;34.30;101632.22;5077007;28;45253;-68
2023/07/18 00:58:48;;;;;;;;;3.75;1.75;;;;;23.03;34.53;101632.41;5061173;28;46268;-67
2023/07/18 01:01:14;;;;;;;;;2.00;2.00;;;;;23.00;34.74;101626.34;5061145;28;45217;-68
2023/07/18 01:03:39;;;;;;;;;3.75;2.00;;;;;22.99;34.45;101624.59;5060083;28;45235;-68
2023/07/18 01:06:05;;;;;;;;;3.50;3.50;;;;;22.97;34.59;101621.16;5065381;28;45351;-67
2023/07/18 01:08:31;;;;;;;;;3.00;3.00;;;;;22.92;34.71;101616.03;5073283;28;47139;-68
2023/07/18 01:10:56;;;;;;;;;1.75;1.75;;;;;22.92;34.66;101620.50;5060991;28;45354;-68
2023/07/18 01:13:22;;;;;;;;;4.00;3.00;;;;;22.88;34.98;101618.00;5075521;28;45298;-67
2023/07/18 01:15:48;;;;;;;;;1.00;1.00;;;;;22.86;34.83;101613.66;5081224;28;45303;-68
2023/07/18 01:18:13;;;;;;;;;1.25;1.25;;;;;22.84;34.82;101615.56;5081281;27;50293;-68
2023/07/18 01:20:40;;;;;;;;;3.25;3.25;;;;;22.82;34.71;101612.09;5081458;28;45252;-68
2023/07/18 01:23:06;;;;;;;;;2.50;2.00;;;;;22.78;34.85;101618.53;5081169;28;45252;-68
2023/07/18 01:25:33;;;;;;;;;1.75;1.75;;;;;22.75;35.14;101610.69;5080943;27;45253;-68
2023/07/18 01:28:01;;;;;;;;;3.50;2.00;;;;;22.72;34.67;101609.88;5079671;28;46251;-68
2023/07/18 01:30:27;;;;;;;;;2.75;1.00;;;;;22.70;35.39;101614.47;5081035;28;45352;-68
2023/07/18 01:32:54;;;;;;;;;2.25;2.00;;;;;22.68;35.12;101620.84;5079750;28;45315;-68
2023/07/18 01:35:23;;;;;;;;;2.50;2.00;;;;;22.66;35.11;101617.38;5081062;28;45556;-68
2023/07/18 01:37:48;;;;;;;;;2.25;2.25;;;;;22.64;34.92;101613.91;5080735;28;46353;-68
2023/07/18 01:40:19;;;;;;;;;1.75;1.75;;;;;22.60;34.78;101615.88;5080858;28;45129;-68
2023/07/18 01:42:46;;;;;;;;;1.25;1.25;;;;;22.58;35.24;101614.22;5081085;28;45405;-68
2023/07/18 01:45:11;;;;;;;;;2.75;2.75;;;;;22.56;35.65;101616.97;5080722;28;45216;-68
2023/07/18 01:47:38;;;;;;;;;2.00;2.00;;;;;22.52;35.49;101610.06;5080743;28;46074;-68
2023/07/18 01:50:05;;;;;;;;;2.75;1.75;;;;;22.50;34.97;101607.47;5081133;28;45256;-68
2023/07/18 01:52:34;;;;;;;;;2.00;2.00;;;;;22.48;35.40;101605.81;5079970;28;45302;-68
2023/07/18 01:55:01;;;;;;;;;1.75;1.75;;;;;22.44;35.46;101598.84;5080530;28;45343;-68
2023/07/18 01:57:31;;;;;;;;;2.00;2.00;;;;;22.42;35.31;101593.59;5080656;28;45288;-68
2023/07/18 02:00:00;;;;;;;;;3.50;2.25;;;;;22.42;35.46;101598.09;5080587;28;45306;-68
2023/07/18 02:02:27;;;;;;;;;1.00;1.00;;;;;22.36;35.30;101584.03;5080940;28;45334;-68
2023/07/18 02:04:52;;;;;;;;;2.00;2.00;;;;;22.36;35.21;101594.75;5068019;28;45439;-68
2023/07/18 02:07:17;;;;;;;;;3.25;2.00;;;;;22.35;35.50;101592.13;5060139;28;46032;-68
2023/07/18 02:09:43;;;;;;;;;1.50;1.00;;;;;22.33;35.71;101591.34;5064950;28;52410;-68
2023/07/18 02:12:08;;;;;;;;;2.25;2.00;;;;;22.27;35.81;101581.81;5064319;28;45258;-68
2023/07/18 02:14:36;;;;;;;;;3.00;1.25;;;;;22.27;35.66;101581.81;5080627;28;45290;-68
2023/07/18 02:17:02;;;;;;;;;2.75;2.00;;;;;22.23;35.65;101573.06;5080000;28;46419;-68
2023/07/18 02:19:27;;;;;;;;;2.50;1.25;;;;;22.23;35.95;101577.56;5080598;28;45388;-68
2023/07/18 02:21:52;;;;;;;;;1.50;1.50;;;;;22.17;35.53;101572.50;5080288;28;45252;-68
2023/07/18 02:24:17;;;;;;;;;2.00;0.75;;;;;22.17;35.91;101567.16;5080483;28;45261;-69
2023/07/18 02:26:43;;;;;;;;;1.00;1.00;;;;;22.13;35.63;101565.59;5079754;28;56344;-68
2023/07/18 02:29:08;;;;;;;;;2.50;2.00;;;;;22.11;35.67;101562.09;5080429;28;45337;-68
2023/07/18 02:31:33;;;;;;;;;1.25;1.25;;;;;22.07;35.87;101558.72;5078892;28;45322;-68
2023/07/18 02:33:59;;;;;;;;;3.75;2.00;;;;;22.06;36.06;101554.28;5080356;28;45338;-68
2023/07/18 02:36:24;;;;;;;;;1.00;1.00;;;;;22.02;36.08;101555.41;5080302;27;45516;-68
2023/07/18 02:38:50;;;;;;;;;2.00;1.00;;;;;22.02;35.96;101558.94;5080248;28;45313;-68
2023/07/18 02:41:15;;;;;;;;;1.50;1.50;;;;;22.00;35.58;101563.50;5080102;28;45283;-68
2023/07/18 02:43:40;;;;;;;;;1.50;1.00;;;;;21.96;36.31;101551.22;5080228;28;45317;-68
2023/07/18 02:46:06;;;;;;;;;1.50;1.50;;;;;21.96;36.12;101553.91;5079782;28;45521;-68
2023/07/18 02:48:31;;;;;;;;;1.00;1.00;;;;;21.95;36.13;101554.84;5080088;28;45242;-68
2023/07/18 02:50:57;;;;;;;;;2.00;2.00;;;;;21.91;36.43;101546.09;5079829;28;47450;-68
2023/07/18 02:53:22;;;;;;;;;2.00;2.00;;;;;21.91;36.40;101547.88;5080311;28;45437;-68
2023/07/18 02:55:49;;;;;;;;;2.00;2.00;;;;;21.90;36.41;101543.50;5079631;28;49989;-68
2023/07/18 02:58:14;;;;;;;;;3.00;2.50;;;;;21.88;35.90;101545.38;5080233;28;45381;-68
2023/07/18 03:00:40;;;;;;;;;2.25;1.00;;;;;21.87;36.16;101549.88;5079670;28;45215;-68
2023/07/18 03:03:06;;;;;;;;;1.00;1.00;;;;;21.86;36.08;101545.47;5080784;28;45556;-68
2023/07/18 03:05:33;;;;;;;;;1.00;1.00;;;;;21.84;36.17;101533.09;5083162;28;46233;-68
2023/07/18 03:07:59;;;;;;;;;4.00;2.00;;;;;21.81;36.00;101527.88;5083410;28;45322;-67
2023/07/18 03:10:24;;;;;;;;;2.00;2.00;;;;;21.80;36.49;101528.81;5066114;28;45280;-68
2023/07/18 03:12:50;;;;;;;;;3.00;3.00;;;;;21.77;36.56;101524.50;5071578;28;45502;-68
2023/07/18 03:15:16;;;;;;;;;3.00;3.00;;;;;21.78;36.18;101522.69;5081524;28;46613;-68
2023/07/18 03:17:42;;;;;;;;;2.75;1.75;;;;;21.75;36.41;101521.91;5083324;28;45274;-68
2023/07/18 03:20:17;;;;;;;;;2.50;1.00;;;;;21.71;36.44;101511.41;5083378;28;45164;-68
2023/07/18 03:22:46;;;;;;;;;2.00;2.00;;;;;21.72;36.77;101514.03;5083051;28;45437;-68
2023/07/18 03:25:12;;;;;;;;;3.00;1.00;;;;;21.69;36.74;101511.50;5082655;27;45477;-68
2023/07/18 03:27:38;;;;;;;;;2.50;2.00;;;;;21.69;36.62;101519.53;5083005;28;45314;-68
2023/07/18 03:30:06;;;;;;;;;3.50;2.00;;;;;21.67;36.48;101512.53;5082768;28;45322;-68
2023/07/18 03:32:32;;;;;;;;;2.00;2.00;;;;;21.65;36.33;101515.28;5083066;28;45445;-68
2023/07/18 03:34:57;;;;;;;;;2.00;2.00;;;;;21.62;36.86;101512.72;5082691;28;46056;-68
2023/07/18 03:37:22;;;;;;;;;4.25;2.50;;;;;21.59;36.87;101512.91;5082751;28;51868;-68
2023/07/18 03:39:47;;;;;;;;;1.50;1.25;;;;;21.55;37.01;101511.28;5082922;27;45207;-68
2023/07/18 03:42:13;;;;;;;;;3.50;2.00;;;;;21.53;36.83;101510.47;5083037;28;46523;-68
2023/07/18 03:44:38;;;;;;;;;2.25;2.00;;;;;21.50;36.33;101500.81;5082716;28;46220;-67
2023/07/18 03:47:04;;;;;;;;;2.00;0.50;;;;;21.47;36.54;101516.13;5082507;28;49492;-67
2023/07/18 03:49:29;;;;;;;;;2.00;2.00;;;;;21.43;37.04;101502.91;5082860;28;45422;-67
2023/07/18 03:51:54;;;;;;;;;3.25;2.25;;;;;21.39;36.65;101509.31;5082954;28;45226;-68
2023/07/18 03:54:20;;;;;;;;;1.25;1.25;;;;;21.36;36.82;101501.47;5082670;28;46108;-67
2023/07/18 03:56:45;;;;;;;;;2.00;2.00;;;;;21.35;36.73;101498.88;5082593;28;45189;-68
2023/07/18 03:59:10;;;;;;;;;1.75;1.00;;;;;21.32;36.69;101502.56;5082742;28;45272;-68
2023/07/18 04:01:35;;;;;;;;;3.00;2.00;;;;;21.30;37.26;101492.88;5081026;28;45463;-69
2023/07/18 04:04:01;;;;;;;;;2.00;2.00;;;;;21.28;37.00;101492.94;5082636;28;45582;-68
2023/07/18 04:06:26;;;;;;;;;3.00;2.00;;;;;21.26;37.33;101500.19;5082602;28;45373;-68
2023/07/18 04:08:51;;;;;;;;;2.00;2.00;;;;;21.23;36.95;101498.53;5079550;28;45328;-68
2023/07/18 04:11:17;;;;;;;;;3.00;3.00;;;;;21.25;36.84;101498.44;5062209;28;45318;-68
2023/07/18 04:13:43;;;;;;;;;1.00;1.00;;;;;21.24;37.18;101494.03;5078092;28;46210;-69
2023/07/18 04:16:08;;;;;;;;;3.50;2.00;;;;;21.23;37.20;101484.28;5081354;28;45346;-67
2023/07/18 04:18:34;;;;;;;;;1.25;1.25;;;;;21.23;36.76;101493.16;5081118;28;45309;-68
2023/07/18 04:21:01;;;;;;;;;4.75;3.50;;;;;21.22;37.20;101485.19;5082234;28;45290;-68
2023/07/18 04:23:26;;;;;;;;;5.00;1.00;;;;;21.21;37.20;101491.50;5081970;28;46342;-67
2023/07/18 04:26:00;;;;;;;;;5.00;1.50;;;;;21.21;37.34;101488.84;5080946;28;45272;-68
2023/07/18 04:28:27;;;;;;;;;1.75;1.75;;;;;21.19;37.08;101485.38;5082182;28;45299;-68
2023/07/18 04:30:52;;;;;;;;;4.00;3.00;;;;;21.19;37.50;101482.69;5081965;28;45422;-68
2023/07/18 04:33:18;;;;;;;;;2.75;2.25;;;;;21.17;36.98;101477.44;5081755;28;45216;-68
2023/07/18 04:35:45;;;;;;;;;1.75;1.00;;;;;21.18;37.57;101475.59;5082078;28;45185;-68
2023/07/18 04:38:11;;;;;;;;;2.25;1.00;;;;;21.17;37.06;101473.88;5082074;28;45241;-67
2023/07/18 04:40:36;;;;;;;;;4.00;2.75;;;;;21.15;36.92;101467.75;5080682;28;45597;-68
2023/07/18 04:43:01;;;;;;;;;2.25;2.00;;;;;21.15;37.63;101463.25;5080458;28;45463;-67
2023/07/18 04:45:27;;;;;;;;;9.25;9.25;;;;;21.15;37.47;101460.59;5081774;28;45314;-68
2023/07/18 04:47:52;;;;;;;;;3.50;3.00;;;;;21.14;37.22;101455.31;5080646;28;45358;-68
2023/07/18 04:50:17;;;;;;;;;3.00;2.00;;;;;21.11;37.49;101449.16;5081748;28;49283;-67
2023/07/18 04:52:43;;;;;;;;;3.25;1.25;;;;;21.10;37.27;101450.09;5080209;28;47107;-68
2023/07/18 04:55:09;;;;;;;;;3.25;1.75;;;;;21.13;37.39;101445.56;5081662;28;45285;-68
2023/07/18 04:57:34;;;;;;;;;3.25;2.00;;;;;21.11;37.77;101446.50;5081721;27;45315;-67
2023/07/18 04:59:59;;;;;;;;;4.00;2.75;;;;;21.11;37.31;101442.97;5081756;28;45278;-67
2023/07/18 05:02:25;;;;;;;;;3.00;2.00;;;;;21.12;37.79;101439.38;5081446;28;46079;-67
2023/07/18 05:04:50;;;;;;;;;1.75;1.75;;;;;21.14;37.66;101444.63;5081524;28;45296;-67
2023/07/18 05:07:15;;;;;;;;;13.50;9.75;;;;;21.11;37.49;101449.16;5081222;28;47614;-67
2023/07/18 05:09:41;;;;;;;;;18.00;13.75;;;;;21.12;37.76;101439.38;5070447;28;45343;-67
2023/07/18 05:12:06;;;;;;;;;2.00;2.00;;;;;21.13;37.89;101433.09;5064678;28;45242;-67
2023/07/18 05:14:32;;;;;;;;;1.00;1.00;;;;;21.14;37.66;101432.13;5081541;28;45197;-67
2023/07/18 05:16:57;;;;;;;;;2.75;2.75;;;;;21.13;37.48;101421.50;5081231;28;45247;-67
2023/07/18 05:19:23;;;;;;;;;2.25;2.25;;;;;21.14;37.46;101409.91;5081480;28;45444;-67
2023/07/18 05:21:48;;;;;;;;;2.50;2.00;;;;;21.15;37.65;101406.28;5079897;27;45518;-67
2023/07/18 05:24:13;;;;;;;;;2.00;2.00;;;;;21.11;37.87;101398.41;5081345;28;45299;-67
2023/07/18 05:26:38;;;;;;;;;1.00;1.00;;;;;21.15;37.50;101427.66;5079821;28;45161;-67
2023/07/18 05:29:04;;;;;;;;;18.00;13.25;;;;;21.17;38.06;101421.31;5081305;28;45517;-67
2023/07/18 05:31:29;;;;;;;;;5.00;3.50;;;;;21.19;37.77;101416.72;5080552;28;54707;-67
2023/07/18 05:33:55;;;;;;;;;4.00;2.00;;;;;21.21;37.40;101422.03;5081145;28;45284;-67
2023/07/18 05:36:20;;;;;;;;;2.00;2.00;;;;;21.22;37.70;101426.41;5096797;27;45344;-67
2023/07/18 05:38:45;;;;;;;;;3.50;2.25;;;;;21.23;37.86;101429.03;5079825;28;45565;-66
2023/07/18 05:41:11;;;;;;;;;3.00;2.00;;;;;21.22;37.91;101434.44;5080209;28;50650;-67
2023/07/18 05:43:36;;;;;;;;;3.50;2.00;;;;;21.26;37.79;101434.22;5081011;28;45691;-66
2023/07/18 05:46:01;;;;;;;;;2.00;1.00;;;;;21.29;37.44;101432.34;5080615;28;45627;-66
2023/07/18 05:48:27;;;;;;;;;2.00;2.00;;;;;21.30;37.37;101434.94;5080952;28;45337;-66
2023/07/18 05:50:53;;;;;;;;;3.00;2.00;;;;;21.32;37.82;101429.50;5080596;28;45377;-66
2023/07/18 05:53:18;;;;;;;;;1.00;1.00;;;;;21.33;37.73;101433.91;5080277;27;45332;-66
2023/07/18 05:55:44;;;;;;;;;2.00;2.00;;;;;21.36;37.56;101429.28;5079287;28;45291;-66
2023/07/18 05:58:09;;;;;;;;;0.75;0.75;;;;;21.38;37.77;101431.88;5079539;28;45266;-66
2023/07/18 06:00:35;;;;;;;;;2.00;1.00;;;;;21.40;37.88;101433.53;5080253;28;46806;-67
2023/07/18 06:03:01;;;;;;;;;1.00;1.00;;;;;21.41;37.37;101431.75;5080600;28;45393;-66
2023/07/18 06:05:26;;;;;;;;;2.75;1.50;;;;;21.42;37.50;101422.75;5080659;28;45318;-66
2023/07/18 06:07:51;;;;;;;;;2.00;2.00;;;;;21.49;37.31;101428.69;5080729;28;45300;-66
2023/07/18 06:10:17;;;;;;;;;2.75;2.00;;;;;21.51;37.94;101427.69;5062700;28;47140;-66
2023/07/18 06:12:42;;;;;;;;;2.25;2.00;;;;;21.51;37.92;101433.03;5068969;28;45248;-67
2023/07/18 06:15:08;;;;;;;;;2.50;2.00;;;;;21.54;37.79;101435.53;5070701;27;45461;-68
2023/07/18 06:17:35;;;;;;;;;2.00;2.00;;;;;21.51;37.73;101419.66;5064952;28;45507;-66
2023/07/18 06:20:02;;;;;;;;;5.00;2.00;;;;;21.58;37.23;101426.47;5061211;28;45248;-68
2023/07/18 06:22:27;;;;;;;;;3.00;1.00;;;;;21.61;37.45;101424.56;5074070;28;45430;-69
2023/07/18 06:24:53;;;;;;;;;2.00;2.00;;;;;21.64;37.31;101425.28;5071246;27;46397;-68
2023/07/18 06:27:18;;;;;;;;;3.00;3.00;;;;;21.66;37.24;101433.22;5068004;28;45481;-67
2023/07/18 06:29:44;;;;;;;;;2.00;2.00;;;;;21.67;37.25;101419.81;5065966;28;45932;-66
2023/07/18 06:32:10;;;;;;;;;5.50;2.00;;;;;21.72;37.22;101424.91;5075818;28;45393;-68
2023/07/18 06:34:40;;;;;;;;;2.25;2.25;;;;;21.73;37.81;101427.47;5073444;28;45713;-68
2023/07/18 06:37:08;;;;;;;;;2.50;2.50;;;;;21.79;37.01;101438.84;5073230;28;45589;-70
2023/07/18 06:39:35;;;;;;;;;3.75;3.75;;;;;21.80;37.47;101438.75;5070080;28;46152;-68
2023/07/18 06:42:00;;;;;;;;;2.00;2.00;;;;;21.84;37.46;101442.16;5056316;28;45557;-70
2023/07/18 06:44:25;;;;;;;;;2.25;2.25;;;;;21.88;37.70;101443.72;5072144;28;45423;-66
2023/07/18 06:46:51;;;;;;;;;2.00;2.00;;;;;21.92;37.50;101445.28;5076019;28;45679;-67
2023/07/18 06:49:18;;;;;;;;;2.00;2.00;;;;;21.99;37.70;101445.84;5073082;28;50195;-67
2023/07/18 06:51:43;;;;;;;;;2.50;1.50;;;;;22.03;37.57;101461.66;5069840;28;45449;-66
2023/07/18 06:54:09;;;;;;;;;3.25;2.25;;;;;22.07;37.52;101478.44;5074697;28;45400;-66
2023/07/18 06:56:36;;;;;;;;;2.00;1.50;;;;;22.14;36.99;101495.91;5080432;28;45549;-67
2023/07/18 06:59:01;;;;;;;;;2.00;2.00;;;;;22.21;37.08;101499.13;5071440;28;45424;-70
2023/07/18 07:01:27;;;;;;;;;0.75;0.75;;;;;22.26;37.42;101494.41;5069298;28;45608;-69
2023/07/18 07:03:52;;;;;;;;;2.50;2.50;;;;;22.32;37.34;101486.06;5075206;28;45435;-69
2023/07/18 07:06:20;;;;;;;;;1.50;1.50;;;;;22.37;37.08;101470.66;5075132;28;45969;-69
2023/07/18 07:08:45;;;;;;;;;1.75;1.75;;;;;22.43;37.17;101457.88;5064805;28;46385;-67
2023/07/18 07:11:10;;;;;;;;;2.50;2.50;;;;;22.48;37.19;101479.94;5061479;28;45535;-67
2023/07/18 07:13:36;;;;;;;;;2.25;2.25;;;;;22.53;37.06;101483.25;5079586;28;45536;-67
2023/07/18 07:16:03;;;;;;;;;3.25;3.25;;;;;22.52;37.31;101478.84;5077097;28;45263;-67
2023/07/18 07:18:29;;;;;;;;;7.00;7.00;;;;;22.62;37.32;101476.53;5061474;28;46551;-67
2023/07/18 07:20:54;;;;;;;;;4.00;4.00;;;;;22.66;37.53;101462.88;5062630;28;45433;-66
2023/07/18 07:23:20;;;;;;;;;3.00;2.00;;;;;22.71;37.15;101454.59;5062533;28;45464;-67
2023/07/18 07:25:45;;;;;;;;;1.00;1.00;;;;;22.75;37.35;101448.13;5062848;28;45202;-67
2023/07/18 07:28:11;;;;;;;;;1.25;1.25;;;;;22.77;36.94;101456.94;5077111;28;47716;-67
2023/07/18 07:30:36;;;;;;;;;1.00;1.00;;;;;22.81;37.16;101477.25;5081655;28;45252;-67
2023/07/18 07:33:06;;;;;;;;;2.75;2.50;;;;;22.84;37.15;101487.81;5083103;28;45365;-67
2023/07/18 07:35:31;;;;;;;;;3.50;3.50;;;;;22.87;36.95;101471.56;5082968;28;45513;-67
2023/07/18 07:37:57;;;;;;;;;2.50;2.50;;;;;22.87;36.98;101466.22;5082803;28;46890;-67
2023/07/18 07:40:22;;;;;;;;;2.00;2.00;;;;;22.94;36.82;101455.16;5081154;28;45244;-67
2023/07/18 07:42:47;;;;;;;;;2.50;2.00;;;;;22.97;37.03;101445.13;5083091;28;45458;-67
2023/07/18 07:45:14;;;;;;;;;4.25;3.00;;;;;23.03;37.03;101449.28;5082683;28;45202;-67
2023/07/18 07:47:39;;;;;;;;;2.25;2.25;;;;;23.07;36.84;101421.38;5082527;28;46050;-67
2023/07/18 07:50:06;;;;;;;;;3.75;3.00;;;;;23.10;36.89;101380.13;5081727;28;45236;-67
2023/07/18 07:52:31;;;;;;;;;2.25;2.25;;;;;23.11;36.88;101360.41;5081557;27;45555;-67
2023/07/18 07:54:57;;;;;;;;;3.00;2.00;;;;;23.15;36.87;101330.69;5082409;28;46229;-67
2023/07/18 07:57:23;;;;;;;;;6.00;3.75;;;;;23.19;37.52;101326.91;5065773;27;46736;-67
2023/07/18 07:59:50;;;;;;;;;2.00;2.00;;;;;23.20;36.78;101312.50;5062398;28;45319;-67
2023/07/18 08:02:15;;;;;;;;;2.00;2.00;;;;;23.24;36.72;101289.06;5062349;28;45236;-67
2023/07/18 08:04:41;;;;;;;;;3.75;2.25;;;;;23.28;36.89;101268.31;5062199;28;45506;-67
2023/07/18 08:07:09;;;;;;;;;2.00;2.00;;;;;23.27;37.00;101240.66;5062038;28;45244;-67
2023/07/18 08:09:36;;;;;;;;;2.00;2.00;;;;;23.37;36.87;101249.00;5062377;28;45213;-67
2023/07/18 08:12:03;;;;;;;;;4.00;2.75;;;;;23.39;36.85;101262.31;5061814;28;45505;-67
2023/07/18 08:14:28;;;;;;;;;3.00;3.00;;;;;23.44;37.02;101270.94;5076311;28;45419;-67
2023/07/18 08:16:54;;;;;;;;;4.50;2.00;;;;;23.47;36.88;101262.69;5082072;28;46284;-67
2023/07/18 08:19:19;;;;;;;;;2.75;2.25;;;;;23.51;36.77;101256.22;5082213;28;45284;-67
2023/07/18 08:21:45;;;;;;;;;1.00;1.00;;;;;23.50;37.02;101233.88;5082265;28;45495;-67
2023/07/18 08:24:10;;;;;;;;;3.00;3.00;;;;;23.56;36.65;101224.63;5082114;28;45321;-67
2023/07/18 08:26:36;;;;;;;;;3.25;2.75;;;;;23.58;36.63;101236.09;5063918;28;46087;-67
2023/07/18 08:29:01;;;;;;;;;3.25;2.75;;;;;23.61;36.54;101229.66;5065244;28;45372;-67
2023/07/18 08:31:26;;;;;;;;;4.25;3.25;;;;;23.63;36.63;101238.50;5062033;28;45360;-67
2023/07/18 08:33:52;;;;;;;;;2.75;2.00;;;;;23.65;36.23;101240.13;5061913;28;45450;-67
2023/07/18 08:36:17;;;;;;;;;2.25;2.25;;;;;23.69;36.75;101249.72;5061812;28;50036;-68
2023/07/18 08:38:49;;;;;;;;;5.00;3.50;;;;;23.72;36.79;101264.75;5061845;28;45421;-68
2023/07/18 08:41:17;;;;;;;;;3.25;3.00;;;;;23.75;36.70;101275.31;5061757;28;45335;-67
2023/07/18 08:43:42;;;;;;;;;3.00;3.00;;;;;23.79;36.42;101281.34;5061645;28;45256;-68
2023/07/18 08:46:08;;;;;;;;;3.25;3.25;;;;;23.80;36.60;101285.78;5061224;28;45353;-68
2023/07/18 08:48:34;;;;;;;;;2.00;2.00;;;;;23.85;36.73;101294.41;5060281;28;45177;-67
2023/07/18 08:51:02;;;;;;;;;2.00;2.00;;;;;23.88;36.89;101296.88;5049696;28;45313;-67
2023/07/18 08:53:27;;;;;;;;;4.00;3.25;;;;;23.91;36.91;101311.91;5074014;28;45544;-67
2023/07/18 08:55:54;;;;;;;;;9.75;7.75;;;;;23.94;36.69;101315.31;5061124;28;46082;-67
2023/07/18 08:58:22;;;;;;;;;6.75;3.75;;;;;23.98;36.69;101316.84;5061196;28;45317;-67
2023/07/18 09:00:47;;;;;;;;;4.00;3.00;;;;;24.00;36.72;101304.19;5058982;28;45308;-67
2023/07/18 09:03:13;;;;;;;;;9.50;4.25;;;;;24.06;36.82;101313.69;5059835;28;45336;-68
2023/07/18 09:05:38;;;;;;;;;5.00;3.00;;;;;24.08;36.97;101297.50;5061274;28;46075;-67
2023/07/18 09:08:05;;;;;;;;;5.00;4.00;;;;;24.10;36.50;101298.25;5061354;28;45238;-67
2023/07/18 09:10:32;;;;;;;;;3.75;3.75;;;;;24.08;36.96;101276.88;5061367;28;45479;-67
2023/07/18 09:13:03;;;;;;;;;5.75;4.50;;;;;24.17;36.69;101283.50;5064327;28;45335;-67
2023/07/18 09:15:30;;;;;;;;;3.25;3.00;;;;;24.21;36.75;101285.00;5081047;28;45667;-67
2023/07/18 09:17:57;;;;;;;;;6.75;4.00;;;;;24.24;36.54;101282.16;5079960;28;45278;-67
2023/07/18 09:20:26;;;;;;;;;6.50;5.25;;;;;24.30;36.74;101281.75;5081540;28;45468;-67
2023/07/18 09:22:59;;;;;;;;;7.25;5.00;;;;;24.34;36.56;101283.28;5081188;28;45457;-67
2023/07/18 09:25:26;;;;;;;;;2.00;2.00;;;;;24.38;36.66;101275.91;5081004;28;46084;-67
2023/07/18 09:27:55;;;;;;;;;2.00;2.00;;;;;24.43;36.69;101283.66;5079970;27;45355;-67
2023/07/18 09:30:37;;;;;;;;;3.00;3.00;;;;;24.45;36.68;101287.97;5081167;28;45227;-67
2023/07/18 09:33:04;;;;;;;;;3.00;3.00;;;;;24.46;36.23;101270.88;5081106;27;45378;-67
2023/07/18 09:35:29;;;;;;;;;4.00;3.00;;;;;24.56;36.36;101264.94;5080931;28;45404;-67
2023/07/18 09:37:55;;;;;;;;;4.00;3.50;;;;;24.60;36.74;101270.00;5080960;28;45165;-67
2023/07/18 09:40:20;;;;;;;;;2.25;1.00;;;;;24.65;36.50;101267.91;5081016;28;45315;-67
2023/07/18 09:42:47;;;;;;;;;2.75;2.00;;;;;24.71;36.87;101261.25;5081116;28;45422;-67
2023/07/18 09:45:14;;;;;;;;;4.00;2.50;;;;;24.80;36.90;101268.72;5080709;27;45374;-67
2023/07/18 09:47:44;;;;;;;;;4.25;2.00;;;;;24.87;36.31;101266.50;5080827;28;45319;-67
2023/07/18 09:50:13;;;;;;;;;2.50;1.50;;;;;24.93;36.49;101266.09;5080933;28;45461;-67
2023/07/18 09:52:50;;;;;;;;;4.50;2.75;;;;;24.99;36.02;101262.09;5080715;27;45524;-67
2023/07/18 09:55:29;;;;;;;;;3.00;2.00;;;;;25.07;35.84;101275.03;5080470;28;45563;-69
2023/07/18 09:57:55;;;;;;;;;2.00;2.00;;;;;25.13;36.19;101263.84;5080821;27;45465;-68
2023/07/18 10:00:23;;;;;;;;;3.75;2.75;;;;;25.19;36.32;101263.44;5079162;28;45391;-68
2023/07/18 10:02:49;;;;;;;;;5.25;3.00;;;;;25.26;36.41;101264.75;5080634;28;45281;-68
2023/07/18 10:05:15;;;;;;;;;1.50;1.50;;;;;25.34;35.78;101249.94;5080393;28;45334;-68
2023/07/18 10:07:43;;;;;;;;;2.25;2.00;;;;;25.44;36.10;101257.28;5080777;28;45329;-68
2023/07/18 10:10:10;;;;;;;;;2.25;2.00;;;;;25.51;35.97;101244.28;5080580;28;45159;-68
2023/07/18 10:12:37;;;;;;;;;1.00;1.00;;;;;25.63;35.84;101258.69;5071391;28;45254;-68
2023/07/18 10:15:03;;;;;;;;;4.00;4.00;;;;;25.72;35.85;101246.44;5079929;27;45291;-68
2023/07/18 10:17:36;;;;;;;;;4.00;3.25;;;;;25.84;36.36;101232.09;5080409;28;45357;-68
2023/07/18 10:20:11;;;;;;;;;2.25;2.00;;;;;25.97;36.27;101234.78;5071395;28;45299;-68
2023/07/18 10:22:46;;;;;;;;;3.50;3.00;;;;;26.14;36.11;101233.59;5071442;28;45272;-68
2023/07/18 10:25:12;;;;;;;;;4.00;3.25;;;;;26.32;36.31;101219.78;5059642;28;45395;-68
2023/07/18 10:27:39;;;;;;;;;4.00;3.00;;;;;26.56;35.81;101233.25;5070994;28;45331;-68
2023/07/18 10:30:06;;;;;;;;;2.00;2.00;;;;;26.83;35.93;101233.06;5060064;28;45410;-68
2023/07/18 10:32:32;;;;;;;;;3.00;3.00;;;;;27.09;35.75;101231.06;5058581;28;45510;-69
2023/07/18 10:35:00;;;;;;;;;4.75;3.00;;;;;27.39;36.34;101220.72;5058523;28;46315;-69
2023/07/18 10:37:26;;;;;;;;;3.00;3.00;;;;;27.72;35.70;101216.38;5059799;28;45302;-68
2023/07/18 10:39:52;;;;;;;;;2.00;2.00;;;;;28.10;35.78;101214.28;5058637;28;45344;-69
2023/07/18 10:42:24;;;;;;;;;1.75;1.75;;;;;28.52;36.01;101209.06;5076982;28;45504;-69
2023/07/18 10:45:06;;;;;;;;;3.00;1.75;;;;;28.95;36.08;101200.03;5067149;28;46159;-69
2023/07/18 10:47:37;;;;;;;;;3.00;3.00;;;;;29.48;35.67;101201.84;5059693;28;45260;-69
2023/07/18 10:50:06;;;;;;;;;1.50;1.50;;;;;30.00;35.81;101195.53;5060098;28;45335;-69
2023/07/18 10:52:32;;;;;;;;;3.25;2.00;;;;;30.50;35.37;101191.94;5058416;28;45361;-69
2023/07/18 10:54:59;;;;;;;;;2.50;2.50;;;;;31.04;35.21;101199.66;5059227;28;47382;-69
2023/07/18 10:57:35;;;;;;;;;3.25;2.25;;;;;31.55;35.08;101194.84;5059801;28;45181;-69
2023/07/18 11:00:05;;;;;;;;;1.75;1.75;;;;;32.08;34.65;101199.59;5059436;28;45236;-69
2023/07/18 11:02:44;;;;;;;;;2.50;2.50;;;;;32.61;34.09;101191.69;5059347;28;45470;-69
2023/07/18 11:05:13;;;;;;;;;3.00;3.00;;;;;33.11;33.80;101192.13;5059351;28;45251;-70
2023/07/18 11:07:44;;;;;;;;;3.25;2.00;;;;;33.58;33.51;101193.66;5059494;28;45396;-70
2023/07/18 11:10:10;;;;;;;;;3.00;2.00;;;;;34.02;33.69;101194.34;5079908;28;45413;-70
2023/07/18 11:12:36;;;;;;;;;2.25;2.00;;;;;34.45;33.31;101190.75;5071185;28;45482;-70
2023/07/18 11:15:06;;;;;;;;;1.75;1.75;;;;;34.85;33.28;101180.03;5078206;28;46842;-70
2023/07/18 11:17:32;;;;;;;;;0.50;0.50;;;;;35.28;33.21;101181.53;5079702;28;45498;-70
2023/07/18 11:19:58;;;;;;;;;1.50;0.75;;;;;35.71;32.99;101175.78;5079886;28;45290;-69